Airport View

Enter AWOS ICAO identifier for current METAR.

ex. KFNL

KFKS 101455Z AUTO 20008G14KT 7SM OVC005 24/21 A2991 RMK AO2 T02350212

10 Aug 2020 15:03

Frequency: 118.325

Phone: 231-352-7573

Other Area AWOS: KMBL - KTVC - KCAD - KLDM

TAF KMBL 101120Z 1012/1112 20006KT P6SM BKN018 FM101400 21008KT P6SM BKN025 FM101600 21009KT P6SM BKN035 FM101800 21010G18KT P6SM SCT040 SCT100 FM101900 22010G18KT P6SM VCTS SCT040CB BKN100 FM102100 24010KT P6SM VCTS BKN050CB BKN100 FM110000 VRB03KT P6SM VCSH BKN050 FM110300 VRB03KT P6SM BKN040